Terminal Aerodrome Forecast
Issued by NWS Twin Cities, MN

Home | Current Version | Previous Version | Graphics & Text | Print | Product List | Glossary On
Versions: 1 2 3 4 5 6 7 8 9 10 11 12 13 14 15 16 17 18 19 20 21 22 23 24 25 26 27 28 29 30 31 32 33
000
FTUS43 KMPX 260500
TAFMSP
TAF
KMSP 260533Z 2606/2712 10008KT P6SM OVC050
     FM261200 05007KT 4SM -SN BKN025 OVC040
     FM261400 03007KT 2SM -SN BR OVC015
      TEMPO 2615/2619 3/4SM -SN BR OVC005
     FM262000 33011KT 6SM -SN OVC018
     FM270000 31012G19KT P6SM BKN018
     FM270400 32010KT P6SM SKC=

USA.gov is the U.S. government's official web portal to all federal, state and local government web resources and services.